sensor_id;sensor_type;location;lat;lon;timestamp;temperature;humidity
11003;DHT22;5554;55.796;13.090;2022-08-18T00:00:10;18.20;99.90
11003;DHT22;5554;55.796;13.090;2022-08-18T00:02:41;18.20;99.90
11003;DHT22;5554;55.796;13.090;2022-08-18T00:05:10;18.20;99.90
11003;DHT22;5554;55.796;13.090;2022-08-18T00:07:38;18.10;99.90
11003;DHT22;5554;55.796;13.090;2022-08-18T00:10:07;18.10;99.90
11003;DHT22;5554;55.796;13.090;2022-08-18T00:12:36;18.10;99.90
11003;DHT22;5554;55.796;13.090;2022-08-18T00:15:05;18.10;99.90
11003;DHT22;5554;55.796;13.090;2022-08-18T00:17:34;18.00;99.90
11003;DHT22;5554;55.796;13.090;2022-08-18T00:20:07;18.10;99.90
11003;DHT22;5554;55.796;13.090;2022-08-18T00:22:36;18.00;99.90
11003;DHT22;5554;55.796;13.090;2022-08-18T00:25:06;18.00;99.90
11003;DHT22;5554;55.796;13.090;2022-08-18T00:27:35;18.10;99.90
11003;DHT22;5554;55.796;13.090;2022-08-18T00:30:07;18.10;99.90
11003;DHT22;5554;55.796;13.090;2022-08-18T00:32:37;18.00;99.90
11003;DHT22;5554;55.796;13.090;2022-08-18T00:35:09;18.00;99.90
11003;DHT22;5554;55.796;13.090;2022-08-18T00:37:38;18.00;99.90
11003;DHT22;5554;55.796;13.090;2022-08-18T00:40:07;18.00;99.90
11003;DHT22;5554;55.796;13.090;2022-08-18T00:42:39;18.00;99.90
11003;DHT22;5554;55.796;13.090;2022-08-18T00:45:13;18.00;99.90
11003;DHT22;5554;55.796;13.090;2022-08-18T00:47:41;17.90;99.90
11003;DHT22;5554;55.796;13.090;2022-08-18T00:50:11;18.00;99.90
11003;DHT22;5554;55.796;13.090;2022-08-18T00:52:39;17.90;99.90
11003;DHT22;5554;55.796;13.090;2022-08-18T00:55:07;17.80;99.90
11003;DHT22;5554;55.796;13.090;2022-08-18T00:57:36;17.90;99.90
11003;DHT22;5554;55.796;13.090;2022-08-18T01:00:06;17.90;99.90
11003;DHT22;5554;55.796;13.090;2022-08-18T01:02:41;17.90;99.90
11003;DHT22;5554;55.796;13.090;2022-08-18T01:05:15;17.90;99.90
11003;DHT22;5554;55.796;13.090;2022-08-18T01:07:46;17.90;99.90
11003;DHT22;5554;55.796;13.090;2022-08-18T01:10:16;17.80;99.90
11003;DHT22;5554;55.796;13.090;2022-08-18T01:12:45;17.80;99.90
11003;DHT22;5554;55.796;13.090;2022-08-18T01:15:14;17.80;99.90
11003;DHT22;5554;55.796;13.090;2022-08-18T01:18:12;17.80;99.90
11003;DHT22;5554;55.796;13.090;2022-08-18T01:21:03;17.80;99.90
11003;DHT22;5554;55.796;13.090;2022-08-18T01:24:03;17.60;99.90
11003;DHT22;5554;55.796;13.090;2022-08-18T01:26:37;17.60;99.90
11003;DHT22;5554;55.796;13.090;2022-08-18T01:29:11;17.60;99.90
11003;DHT22;5554;55.796;13.090;2022-08-18T01:31:41;17.60;99.90
11003;DHT22;5554;55.796;13.090;2022-08-18T01:34:15;17.50;99.90
11003;DHT22;5554;55.796;13.090;2022-08-18T01:36:58;17.70;99.90
11003;DHT22;5554;55.796;13.090;2022-08-18T01:39:47;17.80;99.90
11003;DHT22;5554;55.796;13.090;2022-08-18T01:42:22;17.90;99.90
11003;DHT22;5554;55.796;13.090;2022-08-18T01:44:49;17.90;99.90
11003;DHT22;5554;55.796;13.090;2022-08-18T01:47:17;18.00;99.90
11003;DHT22;5554;55.796;13.090;2022-08-18T01:49:45;17.90;99.90
11003;DHT22;5554;55.796;13.090;2022-08-18T01:52:23;17.90;99.90
11003;DHT22;5554;55.796;13.090;2022-08-18T01:54:55;18.00;99.90
11003;DHT22;5554;55.796;13.090;2022-08-18T01:57:24;18.00;99.90
11003;DHT22;5554;55.796;13.090;2022-08-18T01:59:52;17.90;99.90
11003;DHT22;5554;55.796;13.090;2022-08-18T02:02:22;17.90;99.90
11003;DHT22;5554;55.796;13.090;2022-08-18T02:04:52;17.90;99.90
11003;DHT22;5554;55.796;13.090;2022-08-18T02:07:19;17.90;99.90
11003;DHT22;5554;55.796;13.090;2022-08-18T02:09:47;17.90;99.90
11003;DHT22;5554;55.796;13.090;2022-08-18T02:12:15;17.90;99.90
11003;DHT22;5554;55.796;13.090;2022-08-18T02:14:42;17.90;99.90
11003;DHT22;5554;55.796;13.090;2022-08-18T02:17:20;17.90;99.90
11003;DHT22;5554;55.796;13.090;2022-08-18T02:19:47;17.90;99.90
11003;DHT22;5554;55.796;13.090;2022-08-18T02:22:28;17.90;99.90
11003;DHT22;5554;55.796;13.090;2022-08-18T02:24:56;17.80;99.90
11003;DHT22;5554;55.796;13.090;2022-08-18T02:27:38;17.80;99.90
11003;DHT22;5554;55.796;13.090;2022-08-18T02:30:07;17.70;99.90
11003;DHT22;5554;55.796;13.090;2022-08-18T02:32:35;17.70;99.90
11003;DHT22;5554;55.796;13.090;2022-08-18T02:35:03;17.70;99.90
11003;DHT22;5554;55.796;13.090;2022-08-18T02:37:48;17.60;99.90
11003;DHT22;5554;55.796;13.090;2022-08-18T02:40:16;17.60;99.90
11003;DHT22;5554;55.796;13.090;2022-08-18T02:42:45;17.70;99.90
11003;DHT22;5554;55.796;13.090;2022-08-18T02:45:26;17.70;99.90
11003;DHT22;5554;55.796;13.090;2022-08-18T02:47:54;17.70;99.90
11003;DHT22;5554;55.796;13.090;2022-08-18T02:50:25;17.60;99.90
11003;DHT22;5554;55.796;13.090;2022-08-18T02:52:52;17.60;99.90
11003;DHT22;5554;55.796;13.090;2022-08-18T02:55:20;17.70;99.90
11003;DHT22;5554;55.796;13.090;2022-08-18T02:57:58;17.60;99.90
11003;DHT22;5554;55.796;13.090;2022-08-18T03:00:28;17.70;99.90
11003;DHT22;5554;55.796;13.090;2022-08-18T03:02:55;17.60;99.90
11003;DHT22;5554;55.796;13.090;2022-08-18T03:05:25;17.50;99.90
11003;DHT22;5554;55.796;13.090;2022-08-18T03:07:54;17.50;99.90
11003;DHT22;5554;55.796;13.090;2022-08-18T03:10:22;17.30;99.90
11003;DHT22;5554;55.796;13.090;2022-08-18T03:12:49;17.10;99.90
11003;DHT22;5554;55.796;13.090;2022-08-18T03:15:17;16.80;99.90
11003;DHT22;5554;55.796;13.090;2022-08-18T03:17:44;16.80;99.90
11003;DHT22;5554;55.796;13.090;2022-08-18T03:20:11;16.90;99.90
11003;DHT22;5554;55.796;13.090;2022-08-18T03:22:38;17.00;99.90
11003;DHT22;5554;55.796;13.090;2022-08-18T03:25:06;17.00;99.90
11003;DHT22;5554;55.796;13.090;2022-08-18T03:27:33;17.20;99.90
11003;DHT22;5554;55.796;13.090;2022-08-18T03:30:00;17.40;99.90
11003;DHT22;5554;55.796;13.090;2022-08-18T03:32:30;17.50;99.90
11003;DHT22;5554;55.796;13.090;2022-08-18T03:35:00;17.40;99.90
11003;DHT22;5554;55.796;13.090;2022-08-18T03:37:27;17.50;99.90
11003;DHT22;5554;55.796;13.090;2022-08-18T03:39:54;17.50;99.90
11003;DHT22;5554;55.796;13.090;2022-08-18T03:42:21;17.50;99.90
11003;DHT22;5554;55.796;13.090;2022-08-18T03:44:51;17.40;99.90
11003;DHT22;5554;55.796;13.090;2022-08-18T03:47:18;17.50;99.90
11003;DHT22;5554;55.796;13.090;2022-08-18T03:49:47;17.60;99.90
11003;DHT22;5554;55.796;13.090;2022-08-18T03:52:14;17.70;99.90
11003;DHT22;5554;55.796;13.090;2022-08-18T03:54:41;17.80;99.90
11003;DHT22;5554;55.796;13.090;2022-08-18T03:57:08;17.90;99.90
11003;DHT22;5554;55.796;13.090;2022-08-18T03:59:36;17.90;99.90
11003;DHT22;5554;55.796;13.090;2022-08-18T04:02:14;18.00;99.90
11003;DHT22;5554;55.796;13.090;2022-08-18T04:04:43;18.10;99.90
11003;DHT22;5554;55.796;13.090;2022-08-18T04:07:12;18.20;99.90
11003;DHT22;5554;55.796;13.090;2022-08-18T04:09:44;18.10;99.90
11003;DHT22;5554;55.796;13.090;2022-08-18T04:12:14;18.00;99.90
11003;DHT22;5554;55.796;13.090;2022-08-18T04:14:43;18.10;99.90
11003;DHT22;5554;55.796;13.090;2022-08-18T04:17:12;18.20;99.90
11003;DHT22;5554;55.796;13.090;2022-08-18T04:20:27;18.20;99.90
11003;DHT22;5554;55.796;13.090;2022-08-18T04:22:56;18.30;99.90
11003;DHT22;5554;55.796;13.090;2022-08-18T04:25:23;18.40;99.90
11003;DHT22;5554;55.796;13.090;2022-08-18T04:27:51;18.40;99.90
11003;DHT22;5554;55.796;13.090;2022-08-18T04:30:22;18.40;99.90
11003;DHT22;5554;55.796;13.090;2022-08-18T04:32:49;18.40;99.90
11003;DHT22;5554;55.796;13.090;2022-08-18T04:35:17;18.30;99.90
11003;DHT22;5554;55.796;13.090;2022-08-18T04:37:44;18.20;99.90
11003;DHT22;5554;55.796;13.090;2022-08-18T04:40:13;18.30;99.90
11003;DHT22;5554;55.796;13.090;2022-08-18T04:42:40;18.20;99.90
11003;DHT22;5554;55.796;13.090;2022-08-18T04:45:14;18.20;99.90
11003;DHT22;5554;55.796;13.090;2022-08-18T04:47:41;18.30;99.90
11003;DHT22;5554;55.796;13.090;2022-08-18T04:50:09;18.30;99.90
11003;DHT22;5554;55.796;13.090;2022-08-18T04:52:36;18.40;99.90
11003;DHT22;5554;55.796;13.090;2022-08-18T04:55:22;18.50;99.90
11003;DHT22;5554;55.796;13.090;2022-08-18T04:57:49;18.50;99.90
11003;DHT22;5554;55.796;13.090;2022-08-18T05:00:16;18.60;99.90
11003;DHT22;5554;55.796;13.090;2022-08-18T05:02:44;18.50;99.90
11003;DHT22;5554;55.796;13.090;2022-08-18T05:05:11;18.50;99.90
11003;DHT22;5554;55.796;13.090;2022-08-18T05:07:43;18.60;99.90
11003;DHT22;5554;55.796;13.090;2022-08-18T05:10:11;18.50;99.90
11003;DHT22;5554;55.796;13.090;2022-08-18T05:12:55;18.60;99.90
11003;DHT22;5554;55.796;13.090;2022-08-18T05:15:25;18.60;99.90
11003;DHT22;5554;55.796;13.090;2022-08-18T05:17:52;18.70;99.90
11003;DHT22;5554;55.796;13.090;2022-08-18T05:20:22;18.60;99.90
11003;DHT22;5554;55.796;13.090;2022-08-18T05:22:50;18.60;99.90
11003;DHT22;5554;55.796;13.090;2022-08-18T05:25:17;18.60;99.90
11003;DHT22;5554;55.796;13.090;2022-08-18T05:27:44;18.70;99.90
11003;DHT22;5554;55.796;13.090;2022-08-18T05:30:50;18.70;99.90
11003;DHT22;5554;55.796;13.090;2022-08-18T05:33:51;18.80;99.90
11003;DHT22;5554;55.796;13.090;2022-08-18T05:36:38;18.70;99.90
11003;DHT22;5554;55.796;13.090;2022-08-18T05:39:17;18.70;99.90
11003;DHT22;5554;55.796;13.090;2022-08-18T05:41:50;18.70;99.90
11003;DHT22;5554;55.796;13.090;2022-08-18T05:44:23;18.70;99.90
11003;DHT22;5554;55.796;13.090;2022-08-18T05:47:03;18.70;99.90
11003;DHT22;5554;55.796;13.090;2022-08-18T05:49:31;18.50;99.90
11003;DHT22;5554;55.796;13.090;2022-08-18T05:52:04;18.50;99.90
11003;DHT22;5554;55.796;13.090;2022-08-18T05:54:37;18.40;99.90
11003;DHT22;5554;55.796;13.090;2022-08-18T05:57:24;18.60;99.90
11003;DHT22;5554;55.796;13.090;2022-08-18T05:59:55;18.60;99.90
11003;DHT22;5554;55.796;13.090;2022-08-18T06:02:30;18.60;99.90
11003;DHT22;5554;55.796;13.090;2022-08-18T06:05:00;18.60;99.90
11003;DHT22;5554;55.796;13.090;2022-08-18T06:07:33;18.60;99.90
11003;DHT22;5554;55.796;13.090;2022-08-18T06:10:04;18.50;99.90
11003;DHT22;5554;55.796;13.090;2022-08-18T06:12:35;18.50;99.90
11003;DHT22;5554;55.796;13.090;2022-08-18T06:15:09;18.70;99.90
11003;DHT22;5554;55.796;13.090;2022-08-18T06:23:36;19.00;99.90
11003;DHT22;5554;55.796;13.090;2022-08-18T06:26:11;19.20;99.90
11003;DHT22;5554;55.796;13.090;2022-08-18T06:28:53;19.20;99.90
11003;DHT22;5554;55.796;13.090;2022-08-18T06:31:33;19.10;99.90
11003;DHT22;5554;55.796;13.090;2022-08-18T06:34:14;19.30;99.90
11003;DHT22;5554;55.796;13.090;2022-08-18T06:36:50;19.20;99.90
11003;DHT22;5554;55.796;13.090;2022-08-18T06:39:23;19.30;99.90
11003;DHT22;5554;55.796;13.090;2022-08-18T06:41:52;19.30;99.90
11003;DHT22;5554;55.796;13.090;2022-08-18T06:44:24;19.30;99.90
11003;DHT22;5554;55.796;13.090;2022-08-18T06:47:02;19.30;99.90
11003;DHT22;5554;55.796;13.090;2022-08-18T06:49:38;19.30;99.90
11003;DHT22;5554;55.796;13.090;2022-08-18T06:52:25;19.40;99.90
11003;DHT22;5554;55.796;13.090;2022-08-18T06:54:57;19.50;99.90
11003;DHT22;5554;55.796;13.090;2022-08-18T06:57:31;19.50;99.90
11003;DHT22;5554;55.796;13.090;2022-08-18T07:00:04;19.40;99.90
11003;DHT22;5554;55.796;13.090;2022-08-18T07:02:44;19.40;99.90
11003;DHT22;5554;55.796;13.090;2022-08-18T07:05:23;19.60;99.90
11003;DHT22;5554;55.796;13.090;2022-08-18T07:08:08;19.60;99.90
11003;DHT22;5554;55.796;13.090;2022-08-18T07:10:38;19.70;99.90
11003;DHT22;5554;55.796;13.090;2022-08-18T07:13:12;19.70;99.90
11003;DHT22;5554;55.796;13.090;2022-08-18T07:15:40;19.70;99.90
11003;DHT22;5554;55.796;13.090;2022-08-18T07:18:09;19.70;99.90
11003;DHT22;5554;55.796;13.090;2022-08-18T07:20:44;19.70;99.90
11003;DHT22;5554;55.796;13.090;2022-08-18T07:23:22;19.70;99.90
11003;DHT22;5554;55.796;13.090;2022-08-18T07:25:57;19.70;99.90
11003;DHT22;5554;55.796;13.090;2022-08-18T07:28:31;19.70;99.90
11003;DHT22;5554;55.796;13.090;2022-08-18T07:31:13;19.70;99.90
11003;DHT22;5554;55.796;13.090;2022-08-18T07:33:45;19.70;99.90
11003;DHT22;5554;55.796;13.090;2022-08-18T07:36:16;19.70;99.90
11003;DHT22;5554;55.796;13.090;2022-08-18T07:38:50;19.70;99.90
11003;DHT22;5554;55.796;13.090;2022-08-18T07:41:22;19.90;99.90
11003;DHT22;5554;55.796;13.090;2022-08-18T07:43:58;19.90;99.90
11003;DHT22;5554;55.796;13.090;2022-08-18T07:46:32;20.00;99.90
11003;DHT22;5554;55.796;13.090;2022-08-18T07:49:00;19.90;99.90
11003;DHT22;5554;55.796;13.090;2022-08-18T07:51:39;19.60;99.90
11003;DHT22;5554;55.796;13.090;2022-08-18T07:54:17;19.80;99.90
11003;DHT22;5554;55.796;13.090;2022-08-18T07:56:50;19.80;99.90
11003;DHT22;5554;55.796;13.090;2022-08-18T07:59:23;19.90;99.90
11003;DHT22;5554;55.796;13.090;2022-08-18T08:01:56;19.90;99.90
11003;DHT22;5554;55.796;13.090;2022-08-18T08:08:29;20.00;99.90
11003;DHT22;5554;55.796;13.090;2022-08-18T08:11:07;20.10;99.90
11003;DHT22;5554;55.796;13.090;2022-08-18T08:13:48;20.30;99.90
11003;DHT22;5554;55.796;13.090;2022-08-18T08:16:25;20.30;99.90
11003;DHT22;5554;55.796;13.090;2022-08-18T08:19:02;20.40;99.90
11003;DHT22;5554;55.796;13.090;2022-08-18T08:21:38;20.70;99.90
11003;DHT22;5554;55.796;13.090;2022-08-18T08:27:19;20.90;99.90
11003;DHT22;5554;55.796;13.090;2022-08-18T08:29:54;21.10;99.90
11003;DHT22;5554;55.796;13.090;2022-08-18T08:32:31;21.40;99.90
11003;DHT22;5554;55.796;13.090;2022-08-18T08:35:04;21.60;99.90
11003;DHT22;5554;55.796;13.090;2022-08-18T08:37:40;21.40;99.90
11003;DHT22;5554;55.796;13.090;2022-08-18T08:40:15;21.40;99.90
11003;DHT22;5554;55.796;13.090;2022-08-18T08:42:48;21.50;99.90
11003;DHT22;5554;55.796;13.090;2022-08-18T08:45:21;21.70;99.90
11003;DHT22;5554;55.796;13.090;2022-08-18T08:48:00;21.90;99.90
11003;DHT22;5554;55.796;13.090;2022-08-18T08:50:42;21.80;99.90
11003;DHT22;5554;55.796;13.090;2022-08-18T08:53:17;21.80;99.90
11003;DHT22;5554;55.796;13.090;2022-08-18T08:55:56;22.00;99.90
11003;DHT22;5554;55.796;13.090;2022-08-18T08:58:28;22.10;99.90
11003;DHT22;5554;55.796;13.090;2022-08-18T09:00:58;22.30;99.90
11003;DHT22;5554;55.796;13.090;2022-08-18T09:03:33;22.40;99.90
11003;DHT22;5554;55.796;13.090;2022-08-18T09:06:14;22.50;99.90
11003;DHT22;5554;55.796;13.090;2022-08-18T09:12:53;23.10;99.90
11003;DHT22;5554;55.796;13.090;2022-08-18T09:15:54;24.00;99.90
11003;DHT22;5554;55.796;13.090;2022-08-18T09:18:37;24.80;99.90
11003;DHT22;5554;55.796;13.090;2022-08-18T09:21:18;25.60;99.90
11003;DHT22;5554;55.796;13.090;2022-08-18T09:23:49;26.30;99.90
11003;DHT22;5554;55.796;13.090;2022-08-18T09:26:37;27.00;99.90
11003;DHT22;5554;55.796;13.090;2022-08-18T09:29:15;27.80;99.90
11003;DHT22;5554;55.796;13.090;2022-08-18T09:31:44;28.30;99.90
11003;DHT22;5554;55.796;13.090;2022-08-18T09:34:41;28.70;99.90
11003;DHT22;5554;55.796;13.090;2022-08-18T09:37:17;29.10;99.90
11003;DHT22;5554;55.796;13.090;2022-08-18T09:39:54;29.50;99.90
11003;DHT22;5554;55.796;13.090;2022-08-18T09:42:47;29.80;99.90
11003;DHT22;5554;55.796;13.090;2022-08-18T09:45:55;29.50;99.90
11003;DHT22;5554;55.796;13.090;2022-08-18T09:48:25;30.40;99.90
11003;DHT22;5554;55.796;13.090;2022-08-18T09:54:05;30.70;99.90
11003;DHT22;5554;55.796;13.090;2022-08-18T10:03:18;31.70;1.00
11003;DHT22;5554;55.796;13.090;2022-08-18T10:06:05;31.50;1.00
11003;DHT22;5554;55.796;13.090;2022-08-18T10:12:04;31.60;1.00
11003;DHT22;5554;55.796;13.090;2022-08-18T10:14:48;31.60;99.90
11003;DHT22;5554;55.796;13.090;2022-08-18T10:17:31;32.40;1.00
11003;DHT22;5554;55.796;13.090;2022-08-18T10:20:06;32.40;1.00
11003;DHT22;5554;55.796;13.090;2022-08-18T10:22:42;32.50;99.90
11003;DHT22;5554;55.796;13.090;2022-08-18T10:25:11;32.60;99.90
11003;DHT22;5554;55.796;13.090;2022-08-18T10:27:48;32.70;99.90
11003;DHT22;5554;55.796;13.090;2022-08-18T10:30:46;32.20;1.00
11003;DHT22;5554;55.796;13.090;2022-08-18T10:36:39;32.60;1.00
11003;DHT22;5554;55.796;13.090;2022-08-18T10:39:10;33.50;1.00
11003;DHT22;5554;55.796;13.090;2022-08-18T10:41:48;33.90;1.00
11003;DHT22;5554;55.796;13.090;2022-08-18T10:44:18;33.90;99.90
11003;DHT22;5554;55.796;13.090;2022-08-18T10:46:47;33.40;99.90
11003;DHT22;5554;55.796;13.090;2022-08-18T10:49:18;33.60;99.90
11003;DHT22;5554;55.796;13.090;2022-08-18T10:58:03;34.40;28.80
11003;DHT22;5554;55.796;13.090;2022-08-18T11:00:44;34.80;1.00
11003;DHT22;5554;55.796;13.090;2022-08-18T11:03:26;34.30;1.00
11003;DHT22;5554;55.796;13.090;2022-08-18T11:06:05;34.00;1.00
11003;DHT22;5554;55.796;13.090;2022-08-18T11:08:40;34.10;1.00
11003;DHT22;5554;55.796;13.090;2022-08-18T11:11:10;34.40;1.00
11003;DHT22;5554;55.796;13.090;2022-08-18T11:13:47;34.50;1.00
11003;DHT22;5554;55.796;13.090;2022-08-18T11:16:26;34.20;1.00
11003;DHT22;5554;55.796;13.090;2022-08-18T11:19:04;34.60;1.00
11003;DHT22;5554;55.796;13.090;2022-08-18T11:21:33;34.60;1.00
11003;DHT22;5554;55.796;13.090;2022-08-18T11:24:02;35.00;1.00
11003;DHT22;5554;55.796;13.090;2022-08-18T11:26:32;35.20;1.00
11003;DHT22;5554;55.796;13.090;2022-08-18T11:29:00;35.30;1.00
11003;DHT22;5554;55.796;13.090;2022-08-18T11:31:27;35.50;1.00
11003;DHT22;5554;55.796;13.090;2022-08-18T11:33:54;36.00;1.00
11003;DHT22;5554;55.796;13.090;2022-08-18T11:36:28;35.00;1.00
11003;DHT22;5554;55.796;13.090;2022-08-18T11:38:56;35.20;1.00
11003;DHT22;5554;55.796;13.090;2022-08-18T11:41:26;35.60;1.00
11003;DHT22;5554;55.796;13.090;2022-08-18T11:43:57;35.60;1.00
11003;DHT22;5554;55.796;13.090;2022-08-18T11:46:28;35.60;1.00
11003;DHT22;5554;55.796;13.090;2022-08-18T11:48:56;35.50;1.00
11003;DHT22;5554;55.796;13.090;2022-08-18T11:51:25;35.50;1.00
11003;DHT22;5554;55.796;13.090;2022-08-18T11:53:56;35.40;1.00
11003;DHT22;5554;55.796;13.090;2022-08-18T11:56:26;35.60;1.00
11003;DHT22;5554;55.796;13.090;2022-08-18T11:58:56;35.60;1.00
11003;DHT22;5554;55.796;13.090;2022-08-18T12:01:36;35.50;1.00
11003;DHT22;5554;55.796;13.090;2022-08-18T12:04:13;35.00;1.00
11003;DHT22;5554;55.796;13.090;2022-08-18T12:06:56;35.50;1.00
11003;DHT22;5554;55.796;13.090;2022-08-18T12:09:31;35.40;1.00
11003;DHT22;5554;55.796;13.090;2022-08-18T12:12:02;35.50;1.00
11003;DHT22;5554;55.796;13.090;2022-08-18T12:14:50;35.10;1.00
11003;DHT22;5554;55.796;13.090;2022-08-18T12:17:17;35.50;1.00
11003;DHT22;5554;55.796;13.090;2022-08-18T12:19:44;34.90;1.00
11003;DHT22;5554;55.796;13.090;2022-08-18T12:22:15;34.90;1.00
11003;DHT22;5554;55.796;13.090;2022-08-18T12:24:43;35.10;1.00
11003;DHT22;5554;55.796;13.090;2022-08-18T12:27:12;35.20;1.00
11003;DHT22;5554;55.796;13.090;2022-08-18T12:29:42;35.30;1.00
11003;DHT22;5554;55.796;13.090;2022-08-18T12:32:09;35.30;1.00
11003;DHT22;5554;55.796;13.090;2022-08-18T12:34:36;35.00;1.00
11003;DHT22;5554;55.796;13.090;2022-08-18T12:37:04;35.00;1.00
11003;DHT22;5554;55.796;13.090;2022-08-18T12:39:34;34.80;1.00
11003;DHT22;5554;55.796;13.090;2022-08-18T12:42:01;34.70;1.00
11003;DHT22;5554;55.796;13.090;2022-08-18T12:44:28;34.70;1.00
11003;DHT22;5554;55.796;13.090;2022-08-18T12:46:56;35.00;1.00
11003;DHT22;5554;55.796;13.090;2022-08-18T12:49:24;35.00;1.00
11003;DHT22;5554;55.796;13.090;2022-08-18T12:51:52;34.90;1.00
11003;DHT22;5554;55.796;13.090;2022-08-18T12:54:20;34.40;1.00
11003;DHT22;5554;55.796;13.090;2022-08-18T12:56:51;34.00;1.00
11003;DHT22;5554;55.796;13.090;2022-08-18T12:59:19;34.20;1.00
11003;DHT22;5554;55.796;13.090;2022-08-18T13:01:46;34.10;1.00
11003;DHT22;5554;55.796;13.090;2022-08-18T13:04:15;33.20;1.00
11003;DHT22;5554;55.796;13.090;2022-08-18T13:06:45;33.30;1.00
11003;DHT22;5554;55.796;13.090;2022-08-18T13:09:32;33.30;1.00
11003;DHT22;5554;55.796;13.090;2022-08-18T13:11:59;33.00;1.00
11003;DHT22;5554;55.796;13.090;2022-08-18T13:14:26;32.90;1.00
11003;DHT22;5554;55.796;13.090;2022-08-18T13:16:54;32.50;1.00
11003;DHT22;5554;55.796;13.090;2022-08-18T13:19:22;32.70;1.00
11003;DHT22;5554;55.796;13.090;2022-08-18T13:21:50;33.00;1.00
11003;DHT22;5554;55.796;13.090;2022-08-18T13:24:17;32.80;1.00
11003;DHT22;5554;55.796;13.090;2022-08-18T13:26:45;32.70;1.00
11003;DHT22;5554;55.796;13.090;2022-08-18T13:29:13;32.50;1.00
11003;DHT22;5554;55.796;13.090;2022-08-18T13:31:42;32.80;1.00
11003;DHT22;5554;55.796;13.090;2022-08-18T13:34:09;32.70;1.00
11003;DHT22;5554;55.796;13.090;2022-08-18T13:36:39;32.70;1.00
11003;DHT22;5554;55.796;13.090;2022-08-18T13:39:14;32.60;1.00
11003;DHT22;5554;55.796;13.090;2022-08-18T13:41:41;32.40;1.00
11003;DHT22;5554;55.796;13.090;2022-08-18T13:44:09;32.60;1.00
11003;DHT22;5554;55.796;13.090;2022-08-18T13:46:38;32.50;1.00
11003;DHT22;5554;55.796;13.090;2022-08-18T13:49:10;32.30;1.00
11003;DHT22;5554;55.796;13.090;2022-08-18T13:51:38;32.20;1.00
11003;DHT22;5554;55.796;13.090;2022-08-18T13:54:06;32.20;1.00
11003;DHT22;5554;55.796;13.090;2022-08-18T13:56:33;32.50;1.00
11003;DHT22;5554;55.796;13.090;2022-08-18T13:59:03;32.30;1.00
11003;DHT22;5554;55.796;13.090;2022-08-18T14:01:30;32.30;1.00
11003;DHT22;5554;55.796;13.090;2022-08-18T14:03:59;32.20;1.00
11003;DHT22;5554;55.796;13.090;2022-08-18T14:06:26;32.10;1.00
11003;DHT22;5554;55.796;13.090;2022-08-18T14:08:55;32.00;1.00
11003;DHT22;5554;55.796;13.090;2022-08-18T14:11:24;32.10;1.00
11003;DHT22;5554;55.796;13.090;2022-08-18T14:13:55;31.80;1.00
11003;DHT22;5554;55.796;13.090;2022-08-18T14:16:23;32.00;1.00
11003;DHT22;5554;55.796;13.090;2022-08-18T14:18:50;31.80;1.00
11003;DHT22;5554;55.796;13.090;2022-08-18T14:21:31;31.60;1.00
11003;DHT22;5554;55.796;13.090;2022-08-18T14:24:17;31.50;1.00
11003;DHT22;5554;55.796;13.090;2022-08-18T14:27:01;31.60;1.00
11003;DHT22;5554;55.796;13.090;2022-08-18T14:29:29;31.60;1.00
11003;DHT22;5554;55.796;13.090;2022-08-18T14:31:56;31.50;1.00
11003;DHT22;5554;55.796;13.090;2022-08-18T14:34:23;31.30;2.20
11003;DHT22;5554;55.796;13.090;2022-08-18T14:36:50;31.10;14.40
11003;DHT22;5554;55.796;13.090;2022-08-18T14:39:18;31.10;35.50
11003;DHT22;5554;55.796;13.090;2022-08-18T14:41:45;30.90;52.00
11003;DHT22;5554;55.796;13.090;2022-08-18T14:44:13;30.90;78.90
11003;DHT22;5554;55.796;13.090;2022-08-18T14:46:41;30.70;97.20
11003;DHT22;5554;55.796;13.090;2022-08-18T14:49:12;30.80;99.90
11003;DHT22;5554;55.796;13.090;2022-08-18T14:51:39;30.60;99.90
11003;DHT22;5554;55.796;13.090;2022-08-18T14:54:07;30.70;99.90
11003;DHT22;5554;55.796;13.090;2022-08-18T14:56:36;30.80;99.90
11003;DHT22;5554;55.796;13.090;2022-08-18T14:59:04;30.70;99.90
11003;DHT22;5554;55.796;13.090;2022-08-18T15:01:33;30.60;99.90
11003;DHT22;5554;55.796;13.090;2022-08-18T15:04:00;30.70;99.90
11003;DHT22;5554;55.796;13.090;2022-08-18T15:06:27;30.40;99.90
11003;DHT22;5554;55.796;13.090;2022-08-18T15:08:55;30.20;99.90
11003;DHT22;5554;55.796;13.090;2022-08-18T15:11:22;30.20;99.90
11003;DHT22;5554;55.796;13.090;2022-08-18T15:13:52;30.20;99.90
11003;DHT22;5554;55.796;13.090;2022-08-18T15:16:19;30.00;99.90
11003;DHT22;5554;55.796;13.090;2022-08-18T15:18:47;29.90;99.90
11003;DHT22;5554;55.796;13.090;2022-08-18T15:24:32;29.70;99.90
11003;DHT22;5554;55.796;13.090;2022-08-18T15:27:17;29.90;99.90
11003;DHT22;5554;55.796;13.090;2022-08-18T15:29:48;29.90;99.90
11003;DHT22;5554;55.796;13.090;2022-08-18T15:32:15;29.70;99.90
11003;DHT22;5554;55.796;13.090;2022-08-18T15:34:42;29.70;99.90
11003;DHT22;5554;55.796;13.090;2022-08-18T15:37:12;29.60;99.90
11003;DHT22;5554;55.796;13.090;2022-08-18T15:39:39;29.60;99.90
11003;DHT22;5554;55.796;13.090;2022-08-18T15:42:16;29.40;99.90
11003;DHT22;5554;55.796;13.090;2022-08-18T15:44:43;29.40;99.90
11003;DHT22;5554;55.796;13.090;2022-08-18T15:47:13;29.40;99.90
11003;DHT22;5554;55.796;13.090;2022-08-18T15:49:40;29.40;99.90
11003;DHT22;5554;55.796;13.090;2022-08-18T15:52:11;29.40;99.90
11003;DHT22;5554;55.796;13.090;2022-08-18T15:54:38;29.40;99.90
11003;DHT22;5554;55.796;13.090;2022-08-18T15:57:05;29.40;99.90
11003;DHT22;5554;55.796;13.090;2022-08-18T15:59:38;29.30;99.90
11003;DHT22;5554;55.796;13.090;2022-08-18T16:05:25;29.00;99.90
11003;DHT22;5554;55.796;13.090;2022-08-18T16:07:54;29.10;99.90
11003;DHT22;5554;55.796;13.090;2022-08-18T16:10:23;29.00;99.90
11003;DHT22;5554;55.796;13.090;2022-08-18T16:12:52;28.90;99.90
11003;DHT22;5554;55.796;13.090;2022-08-18T16:15:22;28.80;99.90
11003;DHT22;5554;55.796;13.090;2022-08-18T16:17:51;28.80;99.90
11003;DHT22;5554;55.796;13.090;2022-08-18T16:20:19;28.80;99.90
11003;DHT22;5554;55.796;13.090;2022-08-18T16:22:50;28.70;99.90
11003;DHT22;5554;55.796;13.090;2022-08-18T16:25:18;28.60;99.90
11003;DHT22;5554;55.796;13.090;2022-08-18T16:27:46;28.50;1.00
11003;DHT22;5554;55.796;13.090;2022-08-18T16:30:15;28.50;1.00
11003;DHT22;5554;55.796;13.090;2022-08-18T16:32:42;28.30;1.00
11003;DHT22;5554;55.796;13.090;2022-08-18T16:35:10;28.30;1.00
11003;DHT22;5554;55.796;13.090;2022-08-18T16:37:49;28.30;1.00
11003;DHT22;5554;55.796;13.090;2022-08-18T16:40:19;28.30;1.00
11003;DHT22;5554;55.796;13.090;2022-08-18T16:42:46;28.30;1.00
11003;DHT22;5554;55.796;13.090;2022-08-18T16:45:14;28.30;1.00
11003;DHT22;5554;55.796;13.090;2022-08-18T16:47:41;28.10;1.00
11003;DHT22;5554;55.796;13.090;2022-08-18T16:50:10;28.10;1.00
11003;DHT22;5554;55.796;13.090;2022-08-18T16:52:38;28.00;1.00